Callensburg, PA (16213)

12:18 PM EST on March 01, 2015 (GMT -0500)
Piney Dam | Change Station
CLOSE
Current Station
Personal Weather Station
Location: Clarion, PA
Elevation: 1354 ft
Nearby Weather Stations

Elev 1354 ft 41.17 °N, 79.43 °W | Updated 4 minutes ago

Overcast
Overcast
31.1 °F
Feels Like 31 °F
N
0.0
Wind Variable Wind from North
Gusts 1.6 mph

Today
High -- | Low -- °F
--% Chance of Precip.
Yesterday
High -- | Low -- °F
Precip. -- in
6:52 AM 6:08 PM
Waxing Gibbous, 86% visible
Pressure 30.29 in
Visibility 1.5 miles
Clouds Overcast 900 ft
Windchill 31 °F
Dew Point 24 °F
Humidity 76%
Rainfall 0.00 in
Snow Depth Not available.
UV 2 out of 12
Pollen .60 out of 12
Air Quality Not available.
Flu Activity Not available.
METAR KFKL 011715Z AUTO 21006KT 1 1/2SM OVC009 M02/M04 A3029 RMK AO1

More Conditions Fewer Conditions

Pressure 30.29 in
Visibility 1.5 miles
Clouds Overcast 900 ft
Windchill 31 °F
Dew Point 24 °F
Humidity 76%
Rainfall 0.00 in
Snow Depth Not available.
UV 2 out of 12
Pollen .60 out of 12
Air Quality Not available.
Flu Activity Not available.
METAR KFKL 011715Z AUTO 21006KT 1 1/2SM OVC009 M02/M04 A3029 RMK AO1

More Conditions Fewer Conditions

10-Day Weather Forecast

Almanac

Astronomy

Mar. 01, 2015 Rise Set
Actual Time
Civil Twilight
Nautical Twilight
Astronomical Twilight
Moon
Length of Visible Light
Length of Day
Tomorrow will be .
, % of the Moon is Illuminated

Today's Extremes

State Highs State Lows

Community

WunderPhotos

Upload Photos

1,801,470 photos uploaded!

WunderBlogs® & News

Nearby

Air Quality

  Air Quality AQ Index Pollutant
Not available.

Snow Depth

Station Depth Elevation

Earthquake Activity

City Distance Mag. Time & Date
Minimum magnitude displayed is 2.5.

Coastal Water Temperatures

Place Temperature

Nearby Weather Stations

Winter Weather Advisory
Statement as of 10:45 AM EST on March 01, 2015

... Winter Weather Advisory for snow remains in effect until 7 am
EST Monday...

* total snowfall since last night... ending Monday morning... is
expected to range between 6 to 8 inches.

* Snow intensity... a steady light snow is expected for today into
the evening hours... with occasional periods of moderate snow
reducing visibilities to 1/2 mile at times. There may be a break
or lull in the snowfall late this morning into the very early
afternoon.

* Snow ending... snow will taper off after midnight.

* Impacts... hazardous travel conditions are expected due to snow
accumulation. Additionally... the snow is expected to become very
wet and heavy. Persons shoveling should use extreme caution and
take frequent breaks to avoid injury.

Precautionary/preparedness actions...

A Winter Weather Advisory for snow means that snowfall will cause
travel difficulties. Be prepared for snow covered roads. Report
snow accumulation to the National Weather Service by calling 412-
262-1988... posting to the NWS Pittsburgh facebook Page... or using
twitter @nwspittsburgh.